Stations météo

Publicité
Cardiff, Bute Park, Grande-Bretagne (99160): Température de l'air & dewpoint: 18.01.2021 05:00:00 - 24.01.2021 05:00:00 (GMT)Cardiff, Bute Park, Grande-Bretagne (99160): Température de l'air -20cm & Température de l'air -100cm: 18.01.2021 05:00:00 - 24.01.2021 05:00:00 (GMT)Cardiff, Bute Park, Grande-Bretagne (99160): Quantités de précipitations: 18.01.2021 05:00:00 - 24.01.2021 05:00:00 (GMT)
Date & Time tt [°C] td [°C] tt -20cm [°C] tt -100cm [°C] rr [mm]
24.01.2021 05:00:00 - - - - -
24.01.2021 04:00:00 -0,2 -0,3 - - 0,0
24.01.2021 03:00:00 -0,9 -1,0 - - 0,0
24.01.2021 02:00:00 -1,6 -1,8 - - 0,0
24.01.2021 01:00:00 -1,7 -1,9 - - 0,0
24.01.2021 00:00:00 -2,0 -2,2 - - 0,0
23.01.2021 23:00:00 -2,3 -2,6 - - 0,0
23.01.2021 22:00:00 -2,1 -2,4 - - 0,0
23.01.2021 21:00:00 -1,4 -1,8 - - 0,0
23.01.2021 20:00:00 -1,6 -2,1 - - 0,0
23.01.2021 19:00:00 -1,2 -2,0 - - 0,0
23.01.2021 18:00:00 -0,3 -1,6 - - 0,0
23.01.2021 17:00:00 2,1 -1,6 - - 0,0
23.01.2021 16:00:00 4,5 -1,6 - - 0,0
23.01.2021 15:00:00 5,5 -1,3 - - 0,0
23.01.2021 14:00:00 5,7 -0,9 - - 0,0
23.01.2021 13:00:00 4,6 -1,2 - - 0,0
23.01.2021 12:00:00 4,1 2,2 - - 0,0
23.01.2021 11:00:00 1,9 1,8 - - 0,2
23.01.2021 10:00:00 -0,4 -0,5 - - 0,0
23.01.2021 09:00:00 -1,9 -2,0 5,0 7,0 0,0
23.01.2021 08:00:00 -2,1 -2,3 - - 0,0
23.01.2021 07:00:00 -1,7 -1,8 - - 0,0
23.01.2021 06:00:00 -1,6 -1,8 - - 0,0
23.01.2021 05:00:00 -1,3 -1,4 - - 0,0
23.01.2021 04:00:00 -1,4 -1,5 - - 0,0
23.01.2021 03:00:00 -0,6 -0,6 - - 0,0
23.01.2021 02:00:00 -1,3 -1,4 - - 0,0
23.01.2021 01:00:00 -1,2 -1,3 - - 0,0
23.01.2021 00:00:00 -1,0 -1,2 - - 0,0
22.01.2021 23:00:00 -0,8 -1,1 - - 0,0
22.01.2021 22:00:00 0,1 -0,2 - - 0,0
22.01.2021 21:00:00 0,7 0,3 - - 0,0
22.01.2021 20:00:00 1,8 1,3 - - 0,0
22.01.2021 19:00:00 2,9 2,6 - - 0,4
22.01.2021 18:00:00 2,8 2,4 - - 0,0
22.01.2021 17:00:00 3,2 2,7 - - 0,0
22.01.2021 16:00:00 3,7 2,3 - - 2,8
22.01.2021 15:00:00 5,0 3,6 - - 1,0
22.01.2021 14:00:00 7,5 3,8 - - 0,0
22.01.2021 13:00:00 6,9 3,0 - - 0,0
22.01.2021 12:00:00 6,7 4,7 - - 0,0
22.01.2021 11:00:00 3,3 3,3 - - 0,2
22.01.2021 10:00:00 0,4 0,4 - - 0,0
22.01.2021 09:00:00 -0,8 -0,8 6,0 7,0 0,0
22.01.2021 08:00:00 -1,6 -1,7 - - 0,0
22.01.2021 07:00:00 -1,5 -1,6 - - 0,0
22.01.2021 06:00:00 -1,3 -1,4 - - 0,0
22.01.2021 05:00:00 -1,3 -1,4 - - 0,0
22.01.2021 04:00:00 -0,9 -1,0 - - 0,0
22.01.2021 03:00:00 -0,7 -0,8 - - 0,0
22.01.2021 02:00:00 -0,6 -0,8 - - 0,0
22.01.2021 01:00:00 0,5 0,4 - - 0,0
22.01.2021 00:00:00 0,2 -0,1 - - 0,0
21.01.2021 23:00:00 1,1 0,8 - - 0,0
21.01.2021 22:00:00 1,6 1,5 - - 0,0
21.01.2021 21:00:00 1,2 0,9 - - 0,0
21.01.2021 20:00:00 1,5 1,0 - - 0,0
21.01.2021 19:00:00 2,3 1,6 - - 0,0
21.01.2021 18:00:00 3,1 1,5 - - 0,0
21.01.2021 17:00:00 5,3 2,7 - - 0,0
21.01.2021 16:00:00 6,3 2,5 - - 0,0
21.01.2021 15:00:00 7,2 3,2 - - 0,0
21.01.2021 14:00:00 7,8 3,7 - - 0,0
21.01.2021 13:00:00 7,6 3,4 - - 0,0
21.01.2021 12:00:00 7,5 4,0 - - 0,0
21.01.2021 11:00:00 6,4 4,0 - - 0,0
21.01.2021 10:00:00 5,8 4,3 - - 0,6
21.01.2021 09:00:00 5,2 3,6 7,2 6,9 1,0
21.01.2021 08:00:00 3,7 2,4 - - 2,2
21.01.2021 07:00:00 4,2 2,1 - - 0,4
21.01.2021 06:00:00 5,2 3,5 - - 2,0
21.01.2021 05:00:00 4,9 3,2 - - 0,8
21.01.2021 04:00:00 4,8 3,1 - - 0,6
21.01.2021 03:00:00 4,5 2,4 - - 0,0
21.01.2021 02:00:00 4,2 1,9 - - 0,0
21.01.2021 01:00:00 4,1 2,1 - - 0,0
21.01.2021 00:00:00 3,9 2,5 - - 0,2
20.01.2021 23:00:00 3,9 2,8 - - 0,2
20.01.2021 22:00:00 4,8 3,5 - - 0,0
20.01.2021 21:00:00 6,4 4,8 - - 2,8
20.01.2021 20:00:00 10,0 9,3 - - 1,2
20.01.2021 19:00:00 10,0 9,2 - - 1,2
20.01.2021 18:00:00 10,6 9,1 - - 0,2
20.01.2021 17:00:00 10,5 9,8 - - 0,8
20.01.2021 16:00:00 10,5 9,5 - - 0,0
20.01.2021 15:00:00 10,5 9,3 - - 0,2
20.01.2021 14:00:00 10,5 9,4 - - 1,0
20.01.2021 13:00:00 10,8 9,1 - - 0,0
20.01.2021 12:00:00 10,6 9,3 - - 0,8
20.01.2021 11:00:00 10,4 9,5 - - 1,0
20.01.2021 10:00:00 11,0 9,5 - - 0,0
20.01.2021 09:00:00 10,8 9,9 7,2 6,7 0,8
20.01.2021 08:00:00 10,3 9,5 - - 0,6
20.01.2021 07:00:00 10,9 10,0 - - 0,6
20.01.2021 06:00:00 11,2 10,0 - - 0,2
20.01.2021 05:00:00 11,3 10,4 - - 0,6
20.01.2021 04:00:00 11,0 10,6 - - 1,6
20.01.2021 03:00:00 11,0 10,3 - - 0,6
20.01.2021 02:00:00 11,2 10,7 - - 2,0
20.01.2021 01:00:00 11,0 10,5 - - 3,6
20.01.2021 00:00:00 11,5 10,3 - - 1,8
19.01.2021 23:00:00 10,9 10,3 - - 2,4
19.01.2021 22:00:00 10,7 10,0 - - 2,0
19.01.2021 21:00:00 10,9 9,8 - - 1,2
19.01.2021 20:00:00 11,0 9,4 - - 0,0
19.01.2021 19:00:00 10,7 9,1 - - 0,0
19.01.2021 18:00:00 10,4 8,9 - - 0,0
19.01.2021 17:00:00 10,0 9,1 - - 1,4
19.01.2021 16:00:00 10,1 8,9 - - 1,2
19.01.2021 15:00:00 10,2 8,5 - - 0,4
19.01.2021 14:00:00 10,5 8,2 - - 0,0
19.01.2021 13:00:00 10,4 8,4 - - 0,0
19.01.2021 12:00:00 10,4 8,0 - - 0,0
19.01.2021 11:00:00 10,0 8,0 - - 0,0
19.01.2021 10:00:00 9,8 8,8 - - 0,2
19.01.2021 09:00:00 9,9 9,1 6,0 6,7 0,2
19.01.2021 08:00:00 10,1 9,7 - - 0,6
19.01.2021 07:00:00 10,2 9,6 - - 1,6
19.01.2021 06:00:00 10,2 9,8 - - 0,4
19.01.2021 05:00:00 10,3 9,9 - - 0,2
19.01.2021 04:00:00 10,4 10,0 - - 0,2
19.01.2021 03:00:00 10,4 9,9 - - 1,6
19.01.2021 02:00:00 10,5 10,0 - - 2,4
19.01.2021 01:00:00 10,5 10,1 - - 2,6
19.01.2021 00:00:00 9,8 9,4 - - 0,6
18.01.2021 23:00:00 9,3 9,0 - - 0,8
18.01.2021 22:00:00 9,3 8,9 - - 1,0
18.01.2021 21:00:00 9,3 8,7 - - 0,0
18.01.2021 20:00:00 8,7 8,3 - - 0,4
18.01.2021 19:00:00 8,1 7,7 - - 0,4
18.01.2021 18:00:00 7,8 7,3 - - 0,2
18.01.2021 17:00:00 7,4 7,1 - - 0,8
18.01.2021 16:00:00 7,3 6,8 - - 0,6
18.01.2021 15:00:00 7,7 6,2 - - 0,0
18.01.2021 14:00:00 7,3 6,3 - - 0,2
18.01.2021 13:00:00 6,8 5,6 - - 0,0
18.01.2021 12:00:00 6,8 5,9 - - 0,0
18.01.2021 11:00:00 6,1 5,5 - - 0,0
18.01.2021 10:00:00 5,2 5,0 - - 0,2
18.01.2021 09:00:00 4,0 3,7 5,7 6,7 0,0
18.01.2021 08:00:00 4,0 3,5 - - 0,0
18.01.2021 07:00:00 5,1 4,8 - - 0,0
18.01.2021 06:00:00 4,6 4,4 - - 0,0
18.01.2021 05:00:00 4,5 4,4 - - 0,2

tt = Température de l'air
td = dewpoint
tt -20cm = Température de l'air -20cm
tt -100cm = Température de l'air -100cm
rr = Quantités de précipitations

stations d'obs. à proximité